Time;durP1;ratioP1;P1;durP2;ratioP2;P2;SDS_P1;SDS_P2;PMS_P1;PMS_P2;Temp;Humidity;BMP_temperature;BMP_pressure;BME280_temperature;BME280_humidity;BME280_pressure;Samples;Min_cycle;Max_cycle;Signal;HPM_P1;HPM_P2
2022/09/19 00:01:56;;;;;;;1.40;1.02;;;;;;;;;;1783518;79;21029;-73
2022/09/19 00:04:23;;;;;;;1.72;1.00;;;;;;;;;;1785260;79;21474;-73
2022/09/19 00:06:49;;;;;;;0.72;0.72;;;;;;;;;;1777156;79;21054;-73
2022/09/19 00:09:16;;;;;;;0.90;0.90;;;;;;;;;;1782333;79;20975;-74
2022/09/19 00:11:44;;;;;;;3.50;0.90;;;;;;;;;;1785941;79;21077;-75
2022/09/19 00:14:14;;;;;;;0.70;0.70;;;;;;;;;;1781441;79;20977;-74
2022/09/19 00:16:41;;;;;;;0.78;0.78;;;;;;;;;;1776800;79;21015;-74
2022/09/19 00:19:08;;;;;;;1.55;0.90;;;;;;;;;;1776653;79;20945;-74
2022/09/19 00:21:36;;;;;;;0.72;0.72;;;;;;;;;;1759236;79;21014;-75
2022/09/19 00:26:50;;;;;;;0.82;0.82;;;;;;;;;;1704407;83;20986;-74
2022/09/19 00:29:16;;;;;;;0.53;0.53;;;;;;;;;;1704261;82;21369;-74
2022/09/19 00:31:43;;;;;;;0.70;0.70;;;;;;;;;;1703897;83;21037;-74
2022/09/19 00:34:09;;;;;;;0.70;0.70;;;;;;;;;;1710549;82;21113;-74
2022/09/19 00:36:36;;;;;;;0.70;0.70;;;;;;;;;;1721438;82;21073;-74
2022/09/19 00:39:03;;;;;;;1.17;1.10;;;;;;;;;;1712872;82;21069;-74
2022/09/19 00:41:29;;;;;;;1.10;1.00;;;;;;;;;;1715802;82;20973;-74
2022/09/19 00:43:57;;;;;;;1.07;1.07;;;;;;;;;;1708402;82;21083;-73
2022/09/19 00:46:24;;;;;;;1.10;1.00;;;;;;;;;;1775860;79;21044;-73
2022/09/19 00:48:51;;;;;;;1.15;1.00;;;;;;;;;;1779316;79;21051;-73
2022/09/19 00:51:19;;;;;;;1.60;1.10;;;;;;;;;;1795328;79;21611;-73
2022/09/19 00:53:46;;;;;;;1.15;1.05;;;;;;;;;;1764139;79;20985;-73
2022/09/19 00:56:12;;;;;;;1.20;1.10;;;;;;;;;;1766117;79;21041;-73
2022/09/19 00:58:38;;;;;;;1.40;1.30;;;;;;;;;;1787560;79;21045;-73
2022/09/19 01:03:55;;;;;;;3.77;1.52;;;;;;;;;;1741503;79;75632;-66
2022/09/19 01:06:41;;;;;;;1.40;1.30;;;;;;;;;;1726653;82;21944;-68
2022/09/19 01:09:10;;;;;;;1.77;1.50;;;;;;;;;;1648571;86;21091;-68
2022/09/19 01:11:57;;;;;;;1.50;1.40;;;;;;;;;;1648501;86;21130;-68
2022/09/19 01:14:26;;;;;;;2.40;1.60;;;;;;;;;;1689297;82;21005;-66
2022/09/19 01:16:57;;;;;;;2.12;1.60;;;;;;;;;;1729317;82;21057;-67
2022/09/19 01:21:59;;;;;;;1.90;1.60;;;;;;;;;;1804331;79;22784;-66
2022/09/19 01:24:40;;;;;;;2.37;1.80;;;;;;;;;;1686721;81;21500;-66
2022/09/19 01:27:09;;;;;;;2.40;1.90;;;;;;;;;;1761706;81;21519;-67
2022/09/19 01:29:37;;;;;;;2.62;1.80;;;;;;;;;;1760186;80;21590;-68
2022/09/19 01:32:08;;;;;;;2.20;1.90;;;;;;;;;;1765440;80;21044;-67
2022/09/19 01:34:35;;;;;;;2.70;1.95;;;;;;;;;;1764244;80;21065;-68
2022/09/19 01:37:03;;;;;;;2.45;1.80;;;;;;;;;;1762694;80;21063;-68
2022/09/19 01:39:31;;;;;;;2.12;1.92;;;;;;;;;;1760498;80;21010;-67
2022/09/19 01:42:00;;;;;;;2.60;1.90;;;;;;;;;;1761188;81;21088;-67
2022/09/19 01:44:27;;;;;;;3.70;2.17;;;;;;;;;;1761752;80;21032;-67
2022/09/19 01:47:05;;;;;;;3.80;2.15;;;;;;;;;;1762408;80;21013;-66
2022/09/19 01:49:50;;;;;;;2.30;1.90;;;;;;;;;;1764429;80;21536;-67
2022/09/19 01:52:18;;;;;;;2.75;1.98;;;;;;;;;;1758648;81;21048;-67
2022/09/19 01:54:49;;;;;;;2.75;2.25;;;;;;;;;;1760969;80;21093;-67
2022/09/19 01:57:20;;;;;;;2.90;2.12;;;;;;;;;;1761059;80;21036;-67
2022/09/19 01:59:50;;;;;;;4.72;1.95;;;;;;;;;;1758895;80;21091;-67
2022/09/19 02:02:33;;;;;;;2.90;2.45;;;;;;;;;;1761841;80;21099;-67
2022/09/19 02:05:04;;;;;;;3.22;2.25;;;;;;;;;;1737156;82;21052;-67
2022/09/19 02:07:32;;;;;;;2.00;1.80;;;;;;;;;;1739181;82;21515;-66
2022/09/19 02:10:00;;;;;;;3.77;2.17;;;;;;;;;;1738982;82;21583;-67
2022/09/19 02:12:29;;;;;;;2.55;1.82;;;;;;;;;;1739062;82;21044;-67
2022/09/19 02:14:59;;;;;;;2.30;1.85;;;;;;;;;;1736300;82;20970;-68
2022/09/19 02:17:32;;;;;;;2.52;1.98;;;;;;;;;;1741979;82;21037;-67
2022/09/19 02:19:58;;;;;;;2.17;1.85;;;;;;;;;;1736169;82;21021;-67
2022/09/19 02:22:27;;;;;;;4.08;2.40;;;;;;;;;;1727822;82;21082;-67
2022/09/19 02:24:58;;;;;;;2.98;2.15;;;;;;;;;;1728157;82;20989;-67
2022/09/19 02:27:25;;;;;;;2.55;2.12;;;;;;;;;;1724941;82;21049;-67
2022/09/19 02:29:57;;;;;;;2.62;1.80;;;;;;;;;;1724748;82;21033;-67
2022/09/19 02:32:25;;;;;;;2.35;2.10;;;;;;;;;;1727141;82;21009;-67
2022/09/19 02:34:52;;;;;;;3.17;2.10;;;;;;;;;;1718738;82;20977;-67
2022/09/19 02:37:23;;;;;;;2.45;2.00;;;;;;;;;;1724362;82;21006;-67
2022/09/19 02:40:10;;;;;;;2.10;1.82;;;;;;;;;;1724469;82;21099;-67
2022/09/19 02:42:57;;;;;;;2.40;2.10;;;;;;;;;;1724666;82;21053;-65
2022/09/19 02:45:29;;;;;;;2.55;2.20;;;;;;;;;;1726156;82;21061;-69
2022/09/19 02:47:57;;;;;;;3.42;2.30;;;;;;;;;;1724038;82;21009;-68
2022/09/19 02:50:25;;;;;;;3.60;2.55;;;;;;;;;;1723096;82;21354;-67
2022/09/19 02:52:52;;;;;;;5.22;2.22;;;;;;;;;;1724056;82;20993;-67
2022/09/19 02:55:23;;;;;;;2.98;2.30;;;;;;;;;;1723395;82;21567;-66
2022/09/19 02:57:50;;;;;;;3.22;2.30;;;;;;;;;;1725897;82;21028;-66
2022/09/19 03:00:18;;;;;;;3.75;2.40;;;;;;;;;;1725069;82;21504;-66
2022/09/19 03:02:46;;;;;;;2.70;2.30;;;;;;;;;;1723125;82;21496;-67
2022/09/19 03:05:18;;;;;;;3.35;2.65;;;;;;;;;;1725524;82;21025;-66
2022/09/19 03:07:48;;;;;;;3.00;2.40;;;;;;;;;;1726256;82;21041;-67
2022/09/19 03:10:17;;;;;;;3.25;2.35;;;;;;;;;;1716660;82;21559;-68
2022/09/19 03:12:52;;;;;;;3.33;2.65;;;;;;;;;;1716756;82;21053;-67
2022/09/19 03:15:20;;;;;;;3.80;2.50;;;;;;;;;;1724895;82;21005;-67
2022/09/19 03:17:51;;;;;;;3.50;2.62;;;;;;;;;;1730298;82;21009;-67
2022/09/19 03:20:18;;;;;;;4.70;2.67;;;;;;;;;;1728241;82;21089;-68
2022/09/19 03:22:45;;;;;;;4.35;2.60;;;;;;;;;;1738719;82;21024;-69
2022/09/19 03:25:14;;;;;;;4.12;2.45;;;;;;;;;;1740501;82;21040;-68
2022/09/19 03:27:41;;;;;;;3.83;2.30;;;;;;;;;;1734776;82;21015;-68
2022/09/19 03:30:09;;;;;;;3.47;2.55;;;;;;;;;;1713754;82;21072;-68
2022/09/19 03:32:37;;;;;;;3.72;2.47;;;;;;;;;;1738161;82;21066;-68
2022/09/19 03:35:05;;;;;;;3.95;2.52;;;;;;;;;;1710238;82;21044;-68
2022/09/19 03:37:33;;;;;;;3.85;2.90;;;;;;;;;;1742585;81;21028;-68
2022/09/19 03:40:01;;;;;;;4.03;2.72;;;;;;;;;;1742669;82;20985;-68
2022/09/19 03:42:27;;;;;;;3.27;2.70;;;;;;;;;;1741213;82;21073;-68
2022/09/19 03:44:54;;;;;;;3.33;2.67;;;;;;;;;;1745559;82;21048;-67
2022/09/19 03:47:21;;;;;;;5.80;2.70;;;;;;;;;;1746121;82;21018;-68
2022/09/19 03:49:51;;;;;;;3.20;2.67;;;;;;;;;;1745198;82;21036;-68
2022/09/19 03:52:18;;;;;;;4.37;2.42;;;;;;;;;;1743116;82;21028;-68
2022/09/19 03:54:44;;;;;;;3.40;2.70;;;;;;;;;;1679473;85;21095;-69
2022/09/19 03:57:11;;;;;;;5.03;2.67;;;;;;;;;;1744880;82;21044;-69
2022/09/19 03:59:41;;;;;;;3.85;2.58;;;;;;;;;;1746691;82;20963;-67
2022/09/19 04:02:07;;;;;;;3.55;2.75;;;;;;;;;;1716926;82;21036;-67
2022/09/19 04:04:34;;;;;;;3.05;2.45;;;;;;;;;;1742461;82;21036;-68
2022/09/19 04:07:02;;;;;;;4.28;2.77;;;;;;;;;;1745481;82;21348;-67
2022/09/19 04:09:28;;;;;;;3.65;2.60;;;;;;;;;;1743293;81;21052;-67
2022/09/19 04:11:57;;;;;;;3.65;2.50;;;;;;;;;;1745332;81;21048;-67
2022/09/19 04:14:26;;;;;;;6.17;2.60;;;;;;;;;;1745947;82;21079;-69
2022/09/19 04:16:52;;;;;;;3.98;3.10;;;;;;;;;;1742183;82;21008;-68
2022/09/19 04:19:18;;;;;;;4.17;3.00;;;;;;;;;;1742356;82;21081;-67
2022/09/19 04:21:49;;;;;;;4.60;2.72;;;;;;;;;;1737766;82;21483;-67
2022/09/19 04:24:26;;;;;;;4.10;2.90;;;;;;;;;;1692541;82;21001;-67
2022/09/19 04:27:08;;;;;;;3.62;2.90;;;;;;;;;;1731903;82;20986;-67
2022/09/19 04:29:35;;;;;;;4.75;2.67;;;;;;;;;;1732497;82;21034;-66
2022/09/19 04:32:02;;;;;;;5.70;2.72;;;;;;;;;;1735673;82;21036;-67
2022/09/19 04:34:29;;;;;;;4.20;2.83;;;;;;;;;;1734228;82;21516;-66
2022/09/19 04:37:03;;;;;;;3.50;2.60;;;;;;;;;;1734076;82;21061;-66
2022/09/19 04:39:24;;;;;;;4.85;2.47;;;;;;;;;;1735597;82;21053;-66
2022/09/19 04:41:52;;;;;;;3.80;2.58;;;;;;;;;;1732108;82;21052;-66
2022/09/19 04:44:21;;;;;;;3.10;2.35;;;;;;;;;;1732554;82;21065;-67
2022/09/19 04:46:51;;;;;;;2.73;2.30;;;;;;;;;;1728060;82;21321;-66
2022/09/19 04:49:17;;;;;;;3.72;2.90;;;;;;;;;;1733444;82;21021;-66
2022/09/19 04:51:44;;;;;;;3.77;2.75;;;;;;;;;;1729479;82;21084;-68
2022/09/19 04:54:11;;;;;;;3.60;2.60;;;;;;;;;;1730941;82;20989;-67
2022/09/19 04:56:38;;;;;;;4.20;2.80;;;;;;;;;;1734914;82;21049;-68
2022/09/19 04:59:04;;;;;;;4.85;2.77;;;;;;;;;;1742255;82;21053;-68
2022/09/19 05:01:31;;;;;;;3.50;2.60;;;;;;;;;;1735604;82;21029;-68
2022/09/19 05:03:58;;;;;;;3.87;2.50;;;;;;;;;;1731535;82;21124;-68
2022/09/19 05:06:28;;;;;;;3.45;2.40;;;;;;;;;;1730516;82;21079;-67
2022/09/19 05:08:54;;;;;;;4.72;2.87;;;;;;;;;;1733088;82;20997;-67
2022/09/19 05:11:27;;;;;;;3.08;2.40;;;;;;;;;;1729449;82;21496;-67
2022/09/19 05:13:54;;;;;;;4.17;2.92;;;;;;;;;;1731185;82;21053;-68
2022/09/19 05:16:25;;;;;;;3.47;2.52;;;;;;;;;;1728492;82;21173;-68
2022/09/19 05:18:57;;;;;;;3.25;2.55;;;;;;;;;;1737055;82;21121;-69
2022/09/19 05:21:23;;;;;;;4.53;3.20;;;;;;;;;;1729054;82;21092;-69
2022/09/19 05:23:50;;;;;;;4.92;2.95;;;;;;;;;;1726221;82;21505;-66
2022/09/19 05:26:16;;;;;;;3.35;2.60;;;;;;;;;;1727793;82;21017;-67
2022/09/19 05:28:47;;;;;;;5.47;3.20;;;;;;;;;;1728975;82;21833;-66
2022/09/19 05:31:18;;;;;;;4.17;2.90;;;;;;;;;;1725412;82;21081;-67
2022/09/19 05:33:46;;;;;;;4.25;2.80;;;;;;;;;;1725350;82;21065;-67
2022/09/19 05:36:14;;;;;;;4.85;3.12;;;;;;;;;;1721733;82;21033;-67
2022/09/19 05:38:46;;;;;;;4.00;2.67;;;;;;;;;;1724020;82;21579;-66
2022/09/19 05:41:30;;;;;;;4.08;3.02;;;;;;;;;;1724780;82;21032;-67
2022/09/19 05:43:58;;;;;;;5.37;3.25;;;;;;;;;;1724730;82;21016;-67
2022/09/19 05:46:25;;;;;;;4.53;3.00;;;;;;;;;;1725930;82;21059;-67
2022/09/19 05:48:54;;;;;;;5.62;3.17;;;;;;;;;;1724151;82;21524;-68
2022/09/19 05:51:20;;;;;;;5.05;3.27;;;;;;;;;;1724861;82;21013;-68
2022/09/19 05:53:52;;;;;;;3.90;3.08;;;;;;;;;;1723014;82;21076;-68
2022/09/19 05:56:26;;;;;;;4.58;3.65;;;;;;;;;;1720877;82;21053;-68
2022/09/19 05:58:57;;;;;;;4.37;3.00;;;;;;;;;;1723174;81;21037;-67
2022/09/19 06:01:24;;;;;;;4.42;3.30;;;;;;;;;;1725717;82;21084;-67
2022/09/19 06:03:51;;;;;;;4.30;3.30;;;;;;;;;;1722824;82;21061;-67
2022/09/19 06:06:18;;;;;;;3.87;2.67;;;;;;;;;;1724325;82;21028;-69
2022/09/19 06:08:46;;;;;;;5.12;3.30;;;;;;;;;;1726119;82;21097;-67
2022/09/19 06:11:15;;;;;;;4.28;3.25;;;;;;;;;;1723699;82;21008;-68
2022/09/19 06:16:26;;;;;;;5.87;3.27;;;;;;;;;;1726976;82;21116;-67
2022/09/19 06:18:55;;;;;;;4.62;3.35;;;;;;;;;;1659250;82;21053;-69
2022/09/19 06:21:22;;;;;;;4.20;3.22;;;;;;;;;;1731235;81;21159;-70
2022/09/19 06:23:48;;;;;;;4.03;3.20;;;;;;;;;;1740707;81;21087;-67
2022/09/19 06:26:17;;;;;;;3.72;3.02;;;;;;;;;;1745234;82;21087;-68
2022/09/19 06:28:46;;;;;;;3.70;2.98;;;;;;;;;;1745865;82;21024;-68
2022/09/19 06:31:12;;;;;;;4.33;3.25;;;;;;;;;;1731512;82;21080;-68
2022/09/19 06:33:43;;;;;;;4.78;3.27;;;;;;;;;;1737543;82;21486;-68
2022/09/19 06:36:11;;;;;;;4.08;2.80;;;;;;;;;;1739822;82;21009;-68
2022/09/19 06:38:40;;;;;;;5.12;3.67;;;;;;;;;;1750467;82;21021;-68
2022/09/19 06:41:08;;;;;;;4.30;3.10;;;;;;;;;;1702638;82;21013;-68
2022/09/19 06:43:39;;;;;;;4.35;2.92;;;;;;;;;;1734258;82;21005;-68
2022/09/19 06:46:13;;;;;;;3.60;2.72;;;;;;;;;;1732366;82;20985;-68
2022/09/19 06:48:42;;;;;;;3.62;2.70;;;;;;;;;;1739275;82;21060;-67
2022/09/19 06:51:13;;;;;;;3.80;3.17;;;;;;;;;;1734587;82;21483;-67
2022/09/19 06:53:38;;;;;;;4.50;2.80;;;;;;;;;;1732363;81;21040;-67
2022/09/19 06:56:06;;;;;;;4.67;2.92;;;;;;;;;;1735778;82;21127;-68
2022/09/19 06:58:34;;;;;;;3.80;2.95;;;;;;;;;;1738132;82;21579;-68
2022/09/19 07:01:01;;;;;;;3.80;2.70;;;;;;;;;;1740009;82;21028;-68
2022/09/19 07:03:28;;;;;;;5.60;2.83;;;;;;;;;;1739853;82;21091;-67
2022/09/19 07:05:56;;;;;;;3.80;2.95;;;;;;;;;;1740033;82;21017;-67
2022/09/19 07:08:24;;;;;;;3.77;2.47;;;;;;;;;;1739468;82;21592;-67
2022/09/19 07:10:54;;;;;;;3.27;2.65;;;;;;;;;;1741284;82;21551;-67
2022/09/19 07:13:21;;;;;;;3.58;2.52;;;;;;;;;;1738880;82;21040;-67
2022/09/19 07:15:49;;;;;;;4.28;2.77;;;;;;;;;;1735760;82;21064;-67
2022/09/19 07:18:16;;;;;;;3.80;2.60;;;;;;;;;;1735928;81;21515;-67
2022/09/19 07:20:44;;;;;;;3.75;2.30;;;;;;;;;;1734900;81;21052;-67
2022/09/19 07:23:17;;;;;;;4.15;2.50;;;;;;;;;;1727482;82;21017;-68
2022/09/19 07:25:52;;;;;;;8.53;7.58;;;;;;;;;;1729392;82;20967;-67
2022/09/19 07:28:20;;;;;;;2.83;2.40;;;;;;;;;;1721985;82;21045;-67
2022/09/19 07:30:48;;;;;;;3.58;2.35;;;;;;;;;;1722126;82;21428;-67
2022/09/19 07:33:16;;;;;;;3.47;2.80;;;;;;;;;;1725107;82;21005;-67
2022/09/19 07:35:43;;;;;;;3.30;2.33;;;;;;;;;;1725309;82;21489;-67
2022/09/19 07:38:11;;;;;;;3.35;2.40;;;;;;;;;;1722966;82;21013;-67
2022/09/19 07:40:42;;;;;;;2.87;2.33;;;;;;;;;;1722905;82;21033;-67
2022/09/19 07:43:13;;;;;;;3.47;2.27;;;;;;;;;;1724499;82;21084;-67
2022/09/19 07:45:47;;;;;;;4.78;2.12;;;;;;;;;;1712101;82;21064;-68
2022/09/19 07:48:28;;;;;;;4.37;2.62;;;;;;;;;;1723187;82;21021;-67
2022/09/19 07:51:02;;;;;;;2.92;2.37;;;;;;;;;;1719918;82;21513;-69
2022/09/19 07:53:32;;;;;;;3.00;2.30;;;;;;;;;;1725245;82;21014;-67
2022/09/19 07:55:58;;;;;;;3.25;2.37;;;;;;;;;;1724051;82;21072;-67
2022/09/19 07:58:25;;;;;;;4.20;2.65;;;;;;;;;;1723523;82;21048;-67
2022/09/19 08:00:54;;;;;;;3.70;2.75;;;;;;;;;;1725212;82;21090;-67
2022/09/19 08:03:31;;;;;;;3.00;2.30;;;;;;;;;;1722972;82;21105;-67
2022/09/19 08:05:58;;;;;;;3.47;2.12;;;;;;;;;;1723939;82;21508;-68
2022/09/19 08:08:25;;;;;;;5.85;2.98;;;;;;;;;;1722978;82;21057;-68
2022/09/19 08:10:53;;;;;;;4.42;2.50;;;;;;;;;;1725706;82;21552;-67
2022/09/19 08:16:00;;;;;;;4.00;3.00;;;;;;;;;;1804929;79;22610;-66
2022/09/19 08:18:28;;;;;;;4.67;2.77;;;;;;;;;;1761536;81;20981;-68
2022/09/19 08:20:55;;;;;;;3.90;2.87;;;;;;;;;;1761300;81;21478;-67
2022/09/19 08:23:22;;;;;;;3.30;2.52;;;;;;;;;;1761220;81;21040;-68
2022/09/19 08:25:51;;;;;;;3.92;2.80;;;;;;;;;;1760911;81;21033;-67
2022/09/19 08:28:20;;;;;;;4.12;3.15;;;;;;;;;;1761600;81;21022;-67
2022/09/19 08:30:47;;;;;;;3.40;2.52;;;;;;;;;;1761150;81;21080;-68
2022/09/19 08:33:15;;;;;;;5.08;3.00;;;;;;;;;;1757648;81;21040;-66
2022/09/19 08:35:41;;;;;;;4.90;2.70;;;;;;;;;;1760184;80;20977;-66
2022/09/19 08:38:10;;;;;;;5.65;2.77;;;;;;;;;;1761476;80;21041;-67
2022/09/19 08:40:45;;;;;;;4.65;3.25;;;;;;;;;;1761263;81;21049;-67
2022/09/19 08:43:16;;;;;;;5.00;2.90;;;;;;;;;;1760624;81;21056;-67
2022/09/19 08:45:59;;;;;;;4.40;2.80;;;;;;;;;;1760641;81;21024;-67
2022/09/19 08:48:29;;;;;;;4.72;2.70;;;;;;;;;;1754447;81;21158;-66
2022/09/19 08:50:58;;;;;;;4.00;2.72;;;;;;;;;;1761367;81;21077;-67
2022/09/19 08:53:27;;;;;;;6.62;2.90;;;;;;;;;;1761539;80;21040;-67
2022/09/19 08:55:54;;;;;;;9.35;3.20;;;;;;;;;;1757069;80;21054;-67
2022/09/19 08:58:23;;;;;;;4.90;3.05;;;;;;;;;;1763661;80;20997;-68
2022/09/19 09:01:08;;;;;;;8.13;3.45;;;;;;;;;;1761506;80;21044;-68
2022/09/19 09:03:45;;;;;;;5.70;2.90;;;;;;;;;;1745849;81;21087;-68
2022/09/19 09:06:18;;;;;;;9.20;3.40;;;;;;;;;;1744876;82;21087;-67
2022/09/19 09:09:05;;;;;;;4.22;2.98;;;;;;;;;;1741683;82;21488;-67
2022/09/19 09:11:39;;;;;;;4.58;3.05;;;;;;;;;;1742509;81;21024;-67
2022/09/19 09:14:14;;;;;;;3.77;2.55;;;;;;;;;;1741080;82;21048;-66
2022/09/19 09:16:48;;;;;;;10.05;3.50;;;;;;;;;;1735268;82;21022;-67
2022/09/19 09:19:17;;;;;;;7.75;3.30;;;;;;;;;;1733067;82;20983;-67
2022/09/19 09:21:51;;;;;;;4.72;2.58;;;;;;;;;;1739636;81;21026;-66
2022/09/19 09:24:22;;;;;;;4.95;3.05;;;;;;;;;;1739357;81;21539;-67
2022/09/19 09:26:56;;;;;;;4.42;3.05;;;;;;;;;;1720423;81;20950;-67
2022/09/19 09:29:27;;;;;;;5.62;3.20;;;;;;;;;;1736362;82;20962;-67
2022/09/19 09:32:20;;;;;;;6.12;3.10;;;;;;;;;;1733855;82;21528;-67
2022/09/19 09:34:53;;;;;;;3.97;2.67;;;;;;;;;;1736835;81;21093;-67
2022/09/19 09:37:21;;;;;;;5.05;3.12;;;;;;;;;;1738707;82;21051;-68
2022/09/19 09:39:59;;;;;;;3.83;2.90;;;;;;;;;;1737591;82;21481;-67
2022/09/19 09:42:28;;;;;;;5.72;3.08;;;;;;;;;;1732879;82;21089;-66
2022/09/19 09:45:00;;;;;;;4.37;2.85;;;;;;;;;;1731621;81;21056;-66
2022/09/19 09:47:43;;;;;;;4.37;2.93;;;;;;;;;;1738215;81;21091;-67
2022/09/19 09:50:18;;;;;;;4.55;3.10;;;;;;;;;;1737963;81;22024;-67
2022/09/19 09:52:49;;;;;;;3.45;2.70;;;;;;;;;;1744332;81;21025;-67
2022/09/19 09:58:19;;;;;;;4.10;2.65;;;;;;;;;;1733369;81;21020;-67
2022/09/19 10:03:48;;;;;;;4.97;2.80;;;;;;;;;;1634317;86;21119;-67
2022/09/19 10:06:32;;;;;;;5.47;2.70;;;;;;;;;;1645896;86;21587;-69
2022/09/19 10:09:13;;;;;;;4.78;3.05;;;;;;;;;;1690828;81;21057;-65
2022/09/19 10:11:47;;;;;;;3.10;2.27;;;;;;;;;;1739223;81;21614;-64
2022/09/19 10:14:18;;;;;;;3.92;2.67;;;;;;;;;;1733785;82;21568;-64
2022/09/19 10:16:46;;;;;;;3.37;2.22;;;;;;;;;;1744854;81;20995;-64
2022/09/19 10:19:27;;;;;;;3.85;2.50;;;;;;;;;;1740023;82;21006;-64
2022/09/19 10:21:50;;;;;;;3.62;2.55;;;;;;;;;;1741543;81;21054;-64
2022/09/19 10:24:37;;;;;;;3.92;2.58;;;;;;;;;;1741798;82;21012;-65
2022/09/19 10:27:04;;;;;;;5.00;3.62;;;;;;;;;;1738901;82;21101;-65
2022/09/19 10:29:33;;;;;;;4.15;2.62;;;;;;;;;;1739696;82;21034;-65
2022/09/19 10:32:05;;;;;;;4.47;2.95;;;;;;;;;;1739556;81;21031;-66
2022/09/19 10:34:34;;;;;;;5.05;2.60;;;;;;;;;;1738288;82;20996;-66
2022/09/19 10:37:03;;;;;;;3.65;2.37;;;;;;;;;;1741799;82;21028;-64
2022/09/19 10:39:31;;;;;;;3.10;2.60;;;;;;;;;;1742184;82;21016;-65
2022/09/19 10:41:57;;;;;;;3.60;2.85;;;;;;;;;;1719676;82;21482;-65
2022/09/19 10:44:24;;;;;;;3.40;2.50;;;;;;;;;;1744139;81;21111;-65
2022/09/19 10:46:56;;;;;;;3.70;2.50;;;;;;;;;;1741471;81;21582;-64
2022/09/19 10:49:36;;;;;;;3.90;2.50;;;;;;;;;;1753970;81;21574;-66
2022/09/19 10:52:04;;;;;;;6.05;2.60;;;;;;;;;;1744275;81;21076;-65
2022/09/19 10:54:39;;;;;;;6.20;2.80;;;;;;;;;;1730543;82;21055;-64
2022/09/19 10:57:25;;;;;;;3.10;2.50;;;;;;;;;;1734158;82;21000;-64
2022/09/19 10:59:53;;;;;;;3.65;2.42;;;;;;;;;;1721812;82;21097;-65
2022/09/19 11:02:25;;;;;;;2.95;2.20;;;;;;;;;;1719342;82;21071;-65
2022/09/19 11:04:54;;;;;;;3.42;2.30;;;;;;;;;;1742008;82;21020;-64
2022/09/19 11:07:26;;;;;;;3.20;2.33;;;;;;;;;;1743189;81;21523;-65
2022/09/19 11:09:58;;;;;;;4.92;2.75;;;;;;;;;;1742094;81;21030;-65
2022/09/19 11:12:22;;;;;;;3.37;2.50;;;;;;;;;;1745102;81;21071;-65
2022/09/19 11:14:49;;;;;;;4.40;2.40;;;;;;;;;;1741293;82;21133;-65
2022/09/19 11:17:22;;;;;;;3.27;2.52;;;;;;;;;;1742433;81;21013;-65
2022/09/19 11:20:08;;;;;;;3.83;2.40;;;;;;;;;;1739305;82;21079;-65
2022/09/19 11:22:54;;;;;;;3.58;2.30;;;;;;;;;;1725802;81;21517;-64
2022/09/19 11:25:37;;;;;;;3.92;2.10;;;;;;;;;;1738985;82;21519;-65
2022/09/19 11:28:21;;;;;;;3.92;2.30;;;;;;;;;;1739242;81;21576;-64
2022/09/19 11:31:09;;;;;;;5.00;2.83;;;;;;;;;;1740987;81;22336;-65
2022/09/19 11:33:43;;;;;;;17.65;3.37;;;;;;;;;;1744827;81;21052;-65
2022/09/19 11:36:16;;;;;;;4.45;2.30;;;;;;;;;;1741835;81;21041;-64
2022/09/19 11:39:00;;;;;;;3.60;2.20;;;;;;;;;;1744583;81;21596;-64
2022/09/19 11:41:35;;;;;;;3.15;2.02;;;;;;;;;;1739163;82;21125;-65
2022/09/19 11:44:09;;;;;;;4.67;2.20;;;;;;;;;;1739038;81;21092;-64
2022/09/19 11:46:40;;;;;;;4.55;2.30;;;;;;;;;;1677882;84;21046;-64
2022/09/19 11:49:13;;;;;;;4.75;2.30;;;;;;;;;;1664797;85;21112;-64
2022/09/19 11:51:41;;;;;;;4.65;2.22;;;;;;;;;;1655188;85;21072;-64
2022/09/19 11:54:09;;;;;;;3.20;2.20;;;;;;;;;;1671991;85;21086;-64
2022/09/19 11:56:46;;;;;;;3.05;2.12;;;;;;;;;;1702219;83;21047;-64
2022/09/19 11:59:24;;;;;;;3.92;2.47;;;;;;;;;;1701038;83;21013;-65
2022/09/19 12:02:11;;;;;;;15.95;9.20;;;;;;;;;;1704769;82;21110;-64
2022/09/19 12:04:42;;;;;;;4.42;3.02;;;;;;;;;;1702045;84;21079;-64
2022/09/19 12:07:27;;;;;;;6.47;3.92;;;;;;;;;;1705048;84;21007;-64
2022/09/19 12:09:58;;;;;;;5.97;3.30;;;;;;;;;;1678026;85;21100;-64
2022/09/19 12:12:26;;;;;;;5.50;3.05;;;;;;;;;;1666331;85;21568;-64
2022/09/19 12:15:06;;;;;;;4.08;2.70;;;;;;;;;;1675382;85;21066;-65
2022/09/19 12:17:38;;;;;;;5.85;3.00;;;;;;;;;;1671305;85;21043;-64
2022/09/19 12:20:17;;;;;;;5.12;3.20;;;;;;;;;;1668512;85;21035;-64
2022/09/19 12:22:45;;;;;;;11.30;3.70;;;;;;;;;;1728429;82;21006;-64
2022/09/19 12:25:19;;;;;;;45.88;6.05;;;;;;;;;;1648095;82;21593;-64
2022/09/19 12:27:49;;;;;;;3.90;2.27;;;;;;;;;;1728822;82;21097;-65
2022/09/19 12:30:17;;;;;;;3.12;1.92;;;;;;;;;;1726271;82;21012;-65
2022/09/19 12:33:06;;;;;;;2.67;1.70;;;;;;;;;;1730646;82;21581;-66
2022/09/19 12:35:31;;;;;;;3.05;1.90;;;;;;;;;;1610227;88;21049;-64
2022/09/19 12:38:01;;;;;;;4.10;2.15;;;;;;;;;;1693333;82;21025;-64
2022/09/19 12:40:32;;;;;;;3.35;2.05;;;;;;;;;;1732292;82;21022;-64
2022/09/19 12:43:16;;;;;;;2.65;1.77;;;;;;;;;;1740348;82;21061;-64
2022/09/19 12:45:52;;;;;;;1.60;1.50;;;;;;;;;;1743023;82;21068;-64
2022/09/19 12:48:24;;;;;;;2.58;1.77;;;;;;;;;;1689147;85;21556;-65
2022/09/19 12:50:52;;;;;;;;;;;;;;;;;;1742708;82;21035;-64
2022/09/19 12:53:26;;;;;;;2.35;1.42;;;;;;;;;;1738779;82;20150;-64
2022/09/19 12:56:00;;;;;;;2.92;1.70;;;;;;;;;;1742472;82;21044;-64
2022/09/19 12:58:34;;;;;;;2.37;1.65;;;;;;;;;;1736543;82;21103;-65
2022/09/19 13:01:08;;;;;;;3.25;1.98;;;;;;;;;;1734018;82;21102;-64
2022/09/19 13:03:35;;;;;;;3.30;1.92;;;;;;;;;;1732433;82;21028;-64
2022/09/19 13:06:10;;;;;;;3.50;2.00;;;;;;;;;;1735085;82;21016;-64
2022/09/19 13:08:38;;;;;;;2.60;1.65;;;;;;;;;;1733691;82;21024;-64
2022/09/19 13:11:06;;;;;;;2.47;1.72;;;;;;;;;;1727521;82;21074;-64
2022/09/19 13:13:37;;;;;;;2.52;1.65;;;;;;;;;;1732192;82;21040;-64
2022/09/19 13:16:08;;;;;;;2.05;1.47;;;;;;;;;;1727264;82;21032;-63
2022/09/19 13:24:04;;;;;;;3.35;1.80;;;;;;;;;;1719683;82;21063;-64
2022/09/19 13:26:35;;;;;;;2.22;1.60;;;;;;;;;;1732892;82;21563;-65
2022/09/19 13:29:00;;;;;;;5.20;1.92;;;;;;;;;;1730097;82;21046;-64
2022/09/19 13:31:31;;;;;;;4.80;2.08;;;;;;;;;;1730053;82;21028;-64
2022/09/19 13:33:58;;;;;;;2.35;1.80;;;;;;;;;;1726036;82;21070;-65
2022/09/19 13:38:46;;;;;;;2.62;1.52;;;;;;;;;;1804688;79;22855;-66
2022/09/19 13:41:23;;;;;;;3.17;1.85;;;;;;;;;;1766778;80;21061;-65
2022/09/19 13:44:05;;;;;;;2.27;1.80;;;;;;;;;;1761280;81;21001;-66
2022/09/19 13:46:39;;;;;;;3.15;1.90;;;;;;;;;;1760383;81;21010;-64
2022/09/19 13:49:10;;;;;;;3.58;1.98;;;;;;;;;;1763927;80;21064;-65
2022/09/19 13:51:39;;;;;;;4.37;1.87;;;;;;;;;;1757828;80;22045;-65
2022/09/19 13:54:20;;;;;;;2.22;1.85;;;;;;;;;;1762177;80;21488;-64
2022/09/19 13:56:49;;;;;;;3.15;2.02;;;;;;;;;;1764943;80;21025;-64
2022/09/19 13:59:18;;;;;;;3.27;1.70;;;;;;;;;;1762048;80;21460;-64
2022/09/19 14:01:59;;;;;;;2.77;1.60;;;;;;;;;;1759831;81;21079;-65
2022/09/19 14:04:54;;;;;;;3.35;1.70;;;;;;;;;;1754051;82;21067;-64
2022/09/19 14:07:23;;;;;;;3.47;1.80;;;;;;;;;;1753114;81;21098;-65
2022/09/19 14:09:53;;;;;;;1.98;1.50;;;;;;;;;;1754423;80;21063;-65
2022/09/19 14:12:37;;;;;;;3.83;1.95;;;;;;;;;;1752991;82;21016;-65
2022/09/19 14:15:22;;;;;;;3.15;1.70;;;;;;;;;;1753615;82;21035;-65
2022/09/19 14:18:07;;;;;;;4.22;1.50;;;;;;;;;;1754879;82;21035;-64
2022/09/19 14:20:56;;;;;;;3.25;1.70;;;;;;;;;;1755562;80;21567;-64
2022/09/19 14:23:24;;;;;;;4.42;2.00;;;;;;;;;;1753559;82;21056;-65
2022/09/19 14:26:01;;;;;;;3.75;1.62;;;;;;;;;;1756313;82;21052;-64
2022/09/19 14:28:33;;;;;;;1.92;1.60;;;;;;;;;;1629241;87;22247;-65
2022/09/19 14:31:03;;;;;;;3.42;1.77;;;;;;;;;;1756527;82;21515;-66
2022/09/19 14:33:49;;;;;;;3.35;2.00;;;;;;;;;;1755699;81;21119;-66
2022/09/19 14:36:17;;;;;;;2.37;1.70;;;;;;;;;;1759363;80;21004;-66
2022/09/19 14:38:51;;;;;;;5.55;1.87;;;;;;;;;;1747331;82;21024;-65
2022/09/19 14:41:19;;;;;;;2.67;1.75;;;;;;;;;;1747303;82;20985;-66
2022/09/19 14:44:04;;;;;;;2.45;1.80;;;;;;;;;;1750991;82;20997;-66
2022/09/19 14:46:41;;;;;;;2.50;1.77;;;;;;;;;;1753031;80;21091;-66
2022/09/19 14:49:18;;;;;;;3.40;1.70;;;;;;;;;;1751371;82;21059;-65
2022/09/19 14:51:46;;;;;;;3.77;2.00;;;;;;;;;;1747768;82;21538;-66
2022/09/19 14:54:26;;;;;;;3.50;2.00;;;;;;;;;;1749580;82;21044;-65
2022/09/19 14:56:53;;;;;;;3.05;2.00;;;;;;;;;;1750464;82;21079;-64
2022/09/19 14:59:22;;;;;;;5.58;2.47;;;;;;;;;;1741791;82;21059;-64
2022/09/19 15:01:49;;;;;;;4.00;2.25;;;;;;;;;;1742578;80;21114;-66
2022/09/19 15:04:19;;;;;;;4.35;2.65;;;;;;;;;;1748846;81;21100;-66
2022/09/19 15:06:46;;;;;;;5.62;2.90;;;;;;;;;;1746878;82;21055;-65
2022/09/19 15:09:18;;;;;;;4.78;2.40;;;;;;;;;;1750833;82;21068;-66
2022/09/19 15:11:48;;;;;;;4.53;2.20;;;;;;;;;;1749308;82;21068;-66
2022/09/19 15:14:15;;;;;;;4.70;2.20;;;;;;;;;;1750776;82;21072;-66
2022/09/19 15:16:42;;;;;;;3.02;1.82;;;;;;;;;;1750821;82;21008;-66
2022/09/19 15:19:08;;;;;;;2.65;1.62;;;;;;;;;;1746343;82;21028;-66
2022/09/19 15:21:35;;;;;;;3.22;2.00;;;;;;;;;;1721708;82;21032;-65
2022/09/19 15:24:02;;;;;;;2.35;1.65;;;;;;;;;;1747206;80;21049;-65
2022/09/19 15:26:29;;;;;;;2.47;1.70;;;;;;;;;;1750775;82;21562;-65
2022/09/19 15:28:58;;;;;;;2.22;1.62;;;;;;;;;;1750323;82;21040;-64
2022/09/19 15:31:25;;;;;;;2.40;1.57;;;;;;;;;;1751241;82;21063;-63
2022/09/19 15:34:04;;;;;;;3.05;1.80;;;;;;;;;;1751170;82;21550;-65